createdAt,value
2022-08-26T00:03:02.804Z,73.29
2022-08-26T00:08:04.304Z,73.80
2022-08-26T00:13:06.101Z,73.39
2022-08-26T00:18:16.949Z,73.27
2022-08-26T00:23:24.211Z,73.32
2022-08-26T00:28:26.070Z,73.22
2022-08-26T00:33:27.415Z,73.47
2022-08-26T00:38:28.755Z,74.10
2022-08-26T00:43:33.375Z,73.09
2022-08-26T00:48:51.824Z,73.79
2022-08-26T00:53:59.029Z,72.35
2022-08-26T00:59:03.402Z,71.96
2022-08-26T01:04:05.955Z,72.50
2022-08-26T01:09:07.339Z,73.04
2022-08-26T01:14:09.521Z,73.26
2022-08-26T01:19:21.919Z,74.15
2022-08-26T01:24:25.947Z,75.16
2022-08-26T01:29:30.008Z,75.56
2022-08-26T01:34:35.012Z,75.54
2022-08-26T01:39:36.523Z,75.82
2022-08-26T01:44:41.038Z,76.07
2022-08-26T01:49:43.420Z,76.54
2022-08-26T01:54:46.287Z,76.80
2022-08-26T01:59:53.006Z,77.04
2022-08-26T02:04:58.437Z,77.19
2022-08-26T02:10:00.138Z,77.61
2022-08-26T02:15:05.673Z,77.61
2022-08-26T02:20:13.201Z,77.82
2022-08-26T02:25:19.659Z,78.28
2022-08-26T02:30:22.992Z,78.93
2022-08-26T02:35:25.109Z,79.71
2022-08-26T02:40:30.634Z,81.20
2022-08-26T02:45:33.343Z,82.96
2022-08-26T02:50:34.950Z,84.59
2022-08-26T02:55:36.695Z,85.77
2022-08-26T03:00:38.864Z,89.75
2022-08-26T03:05:54.583Z,92.52
2022-08-26T03:10:55.978Z,93.63
2022-08-26T03:15:57.380Z,95.33
2022-08-26T03:20:59.375Z,96.12
2022-08-26T03:26:01.621Z,97.63
2022-08-26T03:31:02.980Z,97.85
2022-08-26T03:36:06.588Z,98.86
2022-08-26T03:41:08.894Z,98.81
2022-08-26T03:46:12.074Z,98.17
2022-08-26T03:51:14.923Z,98.08
2022-08-26T03:56:19.779Z,96.48
2022-08-26T04:01:21.413Z,95.81
2022-08-26T04:06:22.926Z,94.76
2022-08-26T04:11:30.390Z,93.77
2022-08-26T04:16:34.172Z,93.49
2022-08-26T04:21:38.271Z,92.55
2022-08-26T04:26:43.659Z,92.40
2022-08-26T04:31:45.611Z,92.06
2022-08-26T04:36:47.738Z,92.23
2022-08-26T04:41:50.127Z,91.90
2022-08-26T04:46:52.349Z,92.08
2022-08-26T04:51:54.850Z,91.45
2022-08-26T04:56:56.337Z,91.40
2022-08-26T05:01:59.498Z,91.38
2022-08-26T05:07:02.737Z,90.73
2022-08-26T05:12:04.519Z,90.24
2022-08-26T05:17:06.020Z,90.11
2022-08-26T05:22:08.176Z,89.11
2022-08-26T05:27:11.777Z,89.04
2022-08-26T05:32:13.832Z,88.49
2022-08-26T05:37:17.066Z,88.10
2022-08-26T05:42:20.027Z,87.44
2022-08-26T05:47:21.372Z,87.14
2022-08-26T05:52:26.090Z,87.54
2022-08-26T05:57:30.474Z,86.10
2022-08-26T06:02:31.846Z,86.13
2022-08-26T06:07:51.606Z,84.97
2022-08-26T06:12:53.016Z,85.23
2022-08-26T06:17:54.358Z,84.41
2022-08-26T06:23:14.512Z,84.43
2022-08-26T06:28:16.006Z,84.10
2022-08-26T06:33:17.558Z,84.21
2022-08-26T06:38:19.578Z,83.52
2022-08-26T06:43:23.711Z,81.73
2022-08-26T06:48:25.087Z,81.56
2022-08-26T06:53:28.072Z,81.16
2022-08-26T06:58:30.898Z,80.98
2022-08-26T07:03:39.515Z,79.89
2022-08-26T07:08:41.312Z,79.96
2022-08-26T07:13:42.850Z,80.36
2022-08-26T07:18:45.046Z,79.89
2022-08-26T07:23:48.890Z,79.55
2022-08-26T07:28:53.488Z,79.45
2022-08-26T07:33:54.967Z,77.91
2022-08-26T07:38:56.315Z,78.05
2022-08-26T07:43:57.658Z,78.21
2022-08-26T07:49:00.639Z,78.07
2022-08-26T07:54:02.014Z,76.52
2022-08-26T07:59:03.466Z,75.64
2022-08-26T08:04:17.278Z,76.02
2022-08-26T08:09:19.310Z,75.54
2022-08-26T08:14:22.121Z,75.81
2022-08-26T08:19:24.391Z,75.48
2022-08-26T08:24:38.003Z,75.45
2022-08-26T08:29:39.336Z,74.37
2022-08-26T08:39:46.918Z,74.47
2022-08-26T08:44:52.791Z,75.48
2022-08-26T08:49:55.759Z,73.24
2022-08-26T08:54:58.148Z,73.78
2022-08-26T09:00:08.297Z,73.44
2022-08-26T09:05:15.022Z,73.17
2022-08-26T09:10:19.683Z,74.22
2022-08-26T09:15:35.018Z,73.68
2022-08-26T09:20:55.003Z,72.31
2022-08-26T09:25:58.300Z,71.24
2022-08-26T09:31:15.059Z,69.92
2022-08-26T09:36:35.383Z,69.67
2022-08-26T09:41:40.452Z,68.58
2022-08-26T09:46:44.113Z,67.58
2022-08-26T09:51:45.458Z,67.99
2022-08-26T09:56:52.399Z,68.30
2022-08-26T10:01:54.893Z,68.59
2022-08-26T10:06:59.544Z,68.30
2022-08-26T10:12:04.134Z,69.04
2022-08-26T10:17:09.400Z,67.57
2022-08-26T10:22:16.758Z,68.03
2022-08-26T10:27:37.696Z,68.18
2022-08-26T10:32:50.387Z,68.41
2022-08-26T10:37:54.159Z,67.98
2022-08-26T10:42:59.260Z,68.83
2022-08-26T10:48:10.299Z,68.17
2022-08-26T10:53:12.032Z,67.90
2022-08-26T10:58:38.650Z,67.83
2022-08-26T11:03:40.014Z,66.46
2022-08-26T11:08:50.339Z,66.16
2022-08-26T11:13:59.528Z,65.50
2022-08-26T11:19:00.930Z,66.30
2022-08-26T11:24:03.198Z,67.66
2022-08-26T11:29:12.861Z,69.17
2022-08-26T11:34:14.823Z,67.45
2022-08-26T11:39:25.937Z,66.59
2022-08-26T11:44:40.673Z,63.55
2022-08-26T11:49:42.107Z,61.78
2022-08-26T11:54:59.818Z,62.21
2022-08-26T12:00:01.830Z,61.92
2022-08-26T12:05:03.492Z,63.61
2022-08-26T12:10:05.825Z,64.52
2022-08-26T12:15:13.735Z,65.77
2022-08-26T12:20:17.528Z,66.80
2022-08-26T12:25:22.561Z,67.64
2022-08-26T12:30:26.285Z,64.69
2022-08-26T12:35:28.755Z,62.46
2022-08-26T12:40:30.958Z,62.81
2022-08-26T12:45:38.036Z,63.79
2022-08-26T12:50:44.420Z,64.03
2022-08-26T12:55:49.885Z,63.92
2022-08-26T13:00:53.447Z,63.85
2022-08-26T13:06:08.222Z,64.25
2022-08-26T13:11:28.969Z,63.99
2022-08-26T13:16:30.754Z,65.62
2022-08-26T13:21:37.463Z,64.03
2022-08-26T13:26:40.528Z,64.67
2022-08-26T13:31:44.220Z,65.20
2022-08-26T13:36:50.062Z,65.02
2022-08-26T13:41:52.077Z,63.39
2022-08-26T13:46:53.960Z,64.22
2022-08-26T13:51:55.293Z,62.66
2022-08-26T13:56:56.685Z,64.45
2022-08-26T14:01:58.779Z,64.02
2022-08-26T14:07:00.604Z,64.29
2022-08-26T14:12:02.873Z,61.54
2022-08-26T14:17:04.302Z,59.03
2022-08-26T14:22:05.744Z,59.39
2022-08-26T14:27:07.073Z,60.73
2022-08-26T14:32:12.863Z,61.42
2022-08-26T14:37:15.409Z,61.93
2022-08-26T14:42:19.751Z,62.71
2022-08-26T14:47:22.883Z,63.88
2022-08-26T14:52:24.294Z,64.78
2022-08-26T14:57:25.627Z,65.51
2022-08-26T15:02:33.196Z,66.26
2022-08-26T15:07:34.990Z,66.16
2022-08-26T15:12:36.332Z,64.35
2022-08-26T15:17:38.403Z,66.43
2022-08-26T15:22:42.202Z,67.88
2022-08-26T15:27:43.562Z,68.56
2022-08-26T15:32:44.954Z,68.45
2022-08-26T15:37:46.362Z,68.24
2022-08-26T15:42:47.826Z,68.05
2022-08-26T15:48:01.548Z,67.22
2022-08-26T15:53:04.534Z,68.15
2022-08-26T15:58:05.927Z,68.61
2022-08-26T16:03:07.711Z,67.41
2022-08-26T16:08:09.776Z,68.10
2022-08-26T16:13:12.959Z,68.65
2022-08-26T16:18:16.508Z,68.50
2022-08-26T16:23:20.170Z,68.70
2022-08-26T16:28:26.118Z,69.93
2022-08-26T16:33:29.896Z,70.05
2022-08-26T16:38:31.252Z,70.22
2022-08-26T16:43:33.056Z,70.21
2022-08-26T16:48:35.027Z,70.55
2022-08-26T16:53:36.352Z,70.75
2022-08-26T16:58:37.700Z,71.24
2022-08-26T17:03:39.039Z,71.69
2022-08-26T17:08:41.055Z,72.94
2022-08-26T17:13:42.489Z,73.73
2022-08-26T17:18:43.886Z,74.34
2022-08-26T17:23:45.921Z,75.43
2022-08-26T17:28:47.282Z,76.24
2022-08-26T17:33:53.206Z,76.77
2022-08-26T17:38:56.358Z,77.34
2022-08-26T17:43:57.691Z,78.10
2022-08-26T17:48:59.246Z,78.39
2022-08-26T17:54:00.588Z,79.08
2022-08-26T17:59:04.015Z,79.03
2022-08-26T18:04:05.668Z,79.93
2022-08-26T18:09:07.474Z,80.45
2022-08-26T18:14:08.891Z,80.73
2022-08-26T18:19:10.306Z,81.19
2022-08-26T18:24:14.081Z,81.30
2022-08-26T18:29:16.760Z,81.47
2022-08-26T18:34:19.517Z,81.91
2022-08-26T18:39:22.159Z,82.56
2022-08-26T18:44:25.050Z,82.77
2022-08-26T18:49:26.386Z,81.84
2022-08-26T18:54:27.771Z,82.23
2022-08-26T18:59:30.358Z,81.88
2022-08-26T19:04:31.962Z,82.62
2022-08-26T19:09:33.678Z,82.05
2022-08-26T19:14:35.858Z,82.03
2022-08-26T19:19:38.214Z,82.70
2022-08-26T19:24:39.553Z,82.57
2022-08-26T19:29:40.920Z,82.65
2022-08-26T19:34:42.397Z,82.20
2022-08-26T19:39:43.742Z,82.28
2022-08-26T19:45:03.799Z,82.30
2022-08-26T19:50:07.453Z,82.28
2022-08-26T19:55:10.024Z,82.27
2022-08-26T20:00:14.807Z,82.42
2022-08-26T20:05:16.624Z,82.44
2022-08-26T20:10:21.009Z,82.81
2022-08-26T20:15:22.485Z,82.79
2022-08-26T20:20:42.306Z,83.47
2022-08-26T20:25:43.695Z,83.30
2022-08-26T20:30:45.047Z,83.83
2022-08-26T20:35:46.874Z,83.42
2022-08-26T20:40:49.196Z,83.79
2022-08-26T20:45:50.597Z,84.37
2022-08-26T20:50:55.843Z,84.03
2022-08-26T20:56:01.292Z,84.15
2022-08-26T21:01:07.316Z,84.70
2022-08-26T21:06:09.845Z,84.93
2022-08-26T21:11:11.606Z,85.30
2022-08-26T21:16:13.211Z,85.45
2022-08-26T21:21:14.565Z,85.58
2022-08-26T21:26:16.535Z,85.69
2022-08-26T21:31:18.997Z,85.54
2022-08-26T21:36:20.418Z,84.67
2022-08-26T21:41:24.939Z,85.33
2022-08-26T21:46:27.669Z,84.78
2022-08-26T21:51:30.270Z,84.06
2022-08-26T21:56:32.590Z,84.46
2022-08-26T22:01:34.855Z,83.12
2022-08-26T22:06:40.691Z,83.19
2022-08-26T22:11:42.120Z,82.84
2022-08-26T22:16:48.972Z,83.42
2022-08-26T22:21:53.147Z,82.88
2022-08-26T22:26:55.057Z,83.22
2022-08-26T22:31:57.189Z,82.63
2022-08-26T22:36:59.528Z,82.58
2022-08-26T22:42:00.867Z,82.41
2022-08-26T22:47:02.258Z,82.20
2022-08-26T22:52:03.605Z,82.87
2022-08-26T22:57:04.991Z,83.39
2022-08-26T23:02:06.434Z,84.09
2022-08-26T23:07:09.622Z,84.51
2022-08-26T23:12:10.997Z,83.66
2022-08-26T23:17:14.116Z,84.03
2022-08-26T23:22:17.497Z,84.68
2022-08-26T23:27:18.894Z,83.84
2022-08-26T23:32:20.287Z,84.69
2022-08-26T23:37:31.991Z,84.39
2022-08-26T23:42:36.073Z,84.88
2022-08-26T23:47:37.493Z,85.68
2022-08-26T23:52:57.603Z,85.86
2022-08-26T23:57:59.162Z,85.97
